Time;durP1;ratioP1;P1;durP2;ratioP2;P2;SDS_P1;SDS_P2;PMS_P1;PMS_P2;Temp;Humidity;BMP_temperature;BMP_pressure;BME280_temperature;BME280_humidity;BME280_pressure;Samples;Min_cycle;Max_cycle;Signal;HPM_P1;HPM_P2
2021/10/02 00:02:30;;;;;;;9.45;5.82;;;;;;;16.24;41.73;100566.66;5052703;28;20151;-36
2021/10/02 00:45:40;;;;;;;9.90;5.45;;;;;;;15.37;44.64;100531.59;5052021;28;20116;-37
2021/10/02 00:48:05;;;;;;;10.30;5.25;;;;;;;15.33;43.97;100533.88;5051530;28;20029;-36
2021/10/02 00:50:31;;;;;;;9.55;5.00;;;;;;;15.07;44.88;100528.66;5033613;28;20059;-37
2021/10/02 00:52:56;;;;;;;12.23;5.50;;;;;;;15.07;44.74;100526.78;5049806;28;20045;-36
2021/10/02 00:55:22;;;;;;;9.80;5.47;;;;;;;15.28;44.43;100531.00;5051999;28;20029;-37
2021/10/02 00:57:47;;;;;;;6.57;4.90;;;;;;;15.37;44.20;100526.22;5051550;28;20523;-37
2021/10/02 01:00:13;;;;;;;9.05;5.20;;;;;;;15.33;44.55;100525.00;5051449;28;20029;-37
2021/10/02 01:03:26;;;;;;;8.45;4.80;;;;;;;15.45;44.11;100525.94;5051641;28;20021;-37
2021/10/02 01:05:56;;;;;;;10.05;5.40;;;;;;;15.40;44.18;100531.97;5029898;28;20045;-37
2021/10/02 01:08:38;;;;;;;10.32;5.53;;;;;;;15.37;44.79;100519.00;5030191;28;20151;-37
2021/10/02 01:11:14;;;;;;;8.40;5.47;;;;;;;15.32;44.65;100528.72;5029956;28;20567;-37
2021/10/02 01:13:48;;;;;;;8.00;4.93;;;;;;;15.30;44.75;100525.44;5031528;28;20434;-37
2021/10/02 01:16:22;;;;;;;7.18;4.97;;;;;;;15.24;45.04;100517.19;5031082;28;20057;-37
2021/10/02 01:18:57;;;;;;;9.93;5.13;;;;;;;15.18;45.72;100519.94;5030212;28;20033;-37
2021/10/02 01:21:33;;;;;;;10.07;5.22;;;;;;;15.18;45.61;100520.75;5031876;28;20049;-37
2021/10/02 01:24:16;;;;;;;8.57;5.57;;;;;;;14.99;45.69;100525.19;5050150;28;20094;-37
2021/10/02 01:27:11;;;;;;;9.13;5.47;;;;;;;15.18;45.62;100525.28;5051551;28;20158;-38
2021/10/02 01:29:37;;;;;;;10.10;5.65;;;;;;;15.17;45.15;100515.59;5050252;28;20053;-37
2021/10/02 01:32:14;;;;;;;8.07;5.25;;;;;;;14.94;46.17;100516.94;5032511;28;20044;-37
2021/10/02 01:48:32;;;;;;;9.02;5.50;;;;;;;14.89;47.21;100518.63;5048291;28;20102;-37
2021/10/02 01:50:58;;;;;;;9.23;5.88;;;;;;;14.98;46.64;100517.34;5032967;28;20025;-36
2021/10/02 01:53:24;;;;;;;12.10;6.00;;;;;;;14.89;47.56;100515.94;5033218;28;20499;-36
2021/10/02 01:55:50;;;;;;;9.85;6.00;;;;;;;14.81;47.72;100512.47;5049980;28;20033;-36
2021/10/02 01:58:16;;;;;;;11.82;6.25;;;;;;;14.69;48.31;100516.03;5033102;28;20039;-36
2021/10/02 02:00:44;;;;;;;10.55;6.70;;;;;;;14.74;48.38;100519.72;5049533;28;20025;-36
2021/10/02 02:03:10;;;;;;;10.60;6.97;;;;;;;14.64;48.17;100516.66;5049669;28;20021;-36
2021/10/02 02:05:35;;;;;;;9.93;6.20;;;;;;;14.63;48.90;100515.84;5032844;28;20056;-35
2021/10/02 02:08:06;;;;;;;12.82;6.40;;;;;;;14.72;48.99;100526.34;5033082;28;20057;-36
2021/10/02 02:10:32;;;;;;;8.73;6.38;;;;;;;14.70;48.66;100520.34;5016965;28;20025;-36
2021/10/02 02:12:58;;;;;;;11.70;6.88;;;;;;;14.74;48.65;100524.25;5050841;28;20063;-36
2021/10/02 02:15:25;;;;;;;9.07;6.03;;;;;;;14.65;48.94;100526.34;5049256;28;20053;-36
2021/10/02 02:17:52;;;;;;;10.98;5.93;;;;;;;14.77;48.75;100529.19;5033086;28;20028;-36
2021/10/02 02:20:55;;;;;;;10.73;6.07;;;;;;;14.81;48.71;100525.03;5050509;28;20036;-36
2021/10/02 02:23:21;;;;;;;9.10;6.35;;;;;;;14.66;48.93;100522.66;5018782;28;20041;-36
2021/10/02 02:25:47;;;;;;;11.10;6.55;;;;;;;14.72;48.61;100521.78;5032733;28;20102;-36
2021/10/02 02:28:12;;;;;;;12.38;6.32;;;;;;;14.79;48.64;100522.59;5050576;28;20116;-36
2021/10/02 02:30:38;;;;;;;10.80;6.80;;;;;;;14.73;48.60;100520.75;5049470;28;20029;-36
2021/10/02 02:33:03;;;;;;;11.57;6.32;;;;;;;14.69;48.87;100519.53;5050414;28;20102;-36
2021/10/02 02:35:30;;;;;;;10.15;6.57;;;;;;;14.52;49.27;100523.66;5050801;28;20490;-36
2021/10/02 02:37:55;;;;;;;11.70;6.60;;;;;;;14.48;49.45;100517.91;5050739;28;20025;-36
2021/10/02 02:40:21;;;;;;;14.48;6.82;;;;;;;14.54;49.57;100518.94;5050282;28;20051;-36
2021/10/02 02:42:46;;;;;;;10.30;6.32;;;;;;;14.44;49.46;100524.72;5050779;28;20699;-36
2021/10/02 02:45:13;;;;;;;12.88;7.43;;;;;;;14.28;50.57;100521.47;5052451;28;20411;-36
2021/10/02 02:48:01;;;;;;;11.18;7.70;;;;;;;14.39;50.25;100530.72;5052751;28;20029;-36
2021/10/02 02:50:36;;;;;;;17.20;7.28;;;;;;;14.06;51.28;100526.22;5052718;28;20040;-37
2021/10/02 02:53:12;;;;;;;13.48;6.93;;;;;;;14.06;51.04;100528.06;5036515;28;20487;-36
2021/10/02 02:55:42;;;;;;;14.65;7.07;;;;;;;14.06;51.33;100518.19;5052700;28;20060;-36
2021/10/02 02:58:07;;;;;;;;;;;;;;;14.28;50.66;100520.66;5036899;28;20376;-36
2021/10/02 03:00:40;;;;;;;11.18;7.07;;;;;;;13.87;51.00;100529.72;5052346;28;19921;-36
2021/10/02 03:03:09;;;;;;;12.60;7.15;;;;;;;13.74;52.24;100525.19;5036799;28;20533;-36
2021/10/02 03:05:34;;;;;;;11.82;6.82;;;;;;;13.75;51.73;100524.19;5054094;28;20105;-36
2021/10/02 03:08:02;;;;;;;14.77;7.32;;;;;;;13.75;51.85;100526.03;5052562;28;20431;-36
2021/10/02 03:10:28;;;;;;;12.68;6.90;;;;;;;13.99;51.23;100528.09;5052260;28;20017;-36
2021/10/02 03:12:55;;;;;;;14.35;7.07;;;;;;;13.92;51.42;100527.28;5052386;28;20043;-36
2021/10/02 03:15:20;;;;;;;10.30;7.00;;;;;;;13.82;51.71;100518.81;5053198;28;20111;-36
2021/10/02 03:17:46;;;;;;;12.73;7.07;;;;;;;13.83;51.65;100526.63;5052325;28;20489;-36
2021/10/02 03:20:13;;;;;;;11.95;6.07;;;;;;;13.78;50.99;100520.25;5035547;28;20025;-36
2021/10/02 03:22:38;;;;;;;14.88;7.00;;;;;;;13.79;51.24;100516.56;5035751;28;20437;-36
2021/10/02 03:25:04;;;;;;;11.65;6.32;;;;;;;13.74;50.21;100521.72;5035748;28;20056;-36
2021/10/02 03:27:29;;;;;;;9.75;6.45;;;;;;;13.63;51.11;100515.09;5052329;28;20078;-36
2021/10/02 03:29:55;;;;;;;9.27;6.15;;;;;;;13.81;50.25;100526.03;5035298;28;20025;-35
2021/10/02 03:32:21;;;;;;;10.30;6.50;;;;;;;13.77;50.50;100515.97;5035364;28;20031;-36
2021/10/02 03:34:47;;;;;;;11.40;6.47;;;;;;;13.85;50.72;100516.56;5035491;28;20036;-35
2021/10/02 03:37:12;;;;;;;9.73;6.18;;;;;;;13.82;50.67;100529.50;5052003;28;20044;-35
2021/10/02 03:39:38;;;;;;;11.93;6.10;;;;;;;13.60;50.37;100518.22;5052924;28;20032;-36
2021/10/02 03:42:14;;;;;;;12.40;6.18;;;;;;;13.64;50.22;100527.47;5051955;28;20025;-35
2021/10/02 03:44:42;;;;;;;10.85;6.38;;;;;;;13.52;50.34;100523.72;5053426;28;20032;-36
2021/10/02 03:47:09;;;;;;;9.57;6.63;;;;;;;13.62;50.52;100527.66;5053152;28;20028;-37
2021/10/02 03:49:35;;;;;;;9.93;5.90;;;;;;;13.54;50.49;100529.72;5052906;28;20020;-36
2021/10/02 03:52:00;;;;;;;10.23;5.80;;;;;;;13.58;50.69;100520.25;5052448;28;20041;-36
2021/10/02 03:54:26;;;;;;;11.40;5.97;;;;;;;13.67;49.64;100527.88;5052692;28;20032;-36
2021/10/02 03:56:51;;;;;;;10.13;6.00;;;;;;;14.35;57.09;100534.81;5052190;28;20033;-36
2021/10/02 03:59:17;;;;;;;11.70;6.38;;;;;;;14.54;49.03;100524.28;5052425;28;20041;-35
2021/10/02 04:01:42;;;;;;;9.50;6.03;;;;;;;14.20;51.90;100521.69;5052627;28;20036;-36
2021/10/02 04:04:07;;;;;;;12.43;6.50;;;;;;;13.97;55.36;100532.00;5051220;28;20033;-37
2021/10/02 04:06:33;;;;;;;11.40;6.15;;;;;;;14.03;51.59;100523.97;5052493;28;20021;-37
2021/10/02 04:08:58;;;;;;;9.82;6.40;;;;;;;13.92;51.85;100524.59;5052174;28;20151;-37
2021/10/02 04:11:26;;;;;;;14.88;8.30;;;;;;;13.84;51.37;100535.47;5052082;28;20028;-37
2021/10/02 04:13:51;;;;;;;11.23;6.75;;;;;;;13.77;51.16;100538.16;5052286;28;20029;-37
2021/10/02 04:16:17;;;;;;;15.15;6.70;;;;;;;13.50;51.53;100537.31;5052120;28;20044;-37
2021/10/02 04:18:42;;;;;;;14.25;8.20;;;;;;;13.40;51.85;100539.56;5051949;28;20044;-37
2021/10/02 04:21:07;;;;;;;12.75;8.18;;;;;;;13.45;52.06;100532.56;5052603;28;20206;-37
2021/10/02 04:23:33;;;;;;;15.13;8.45;;;;;;;13.29;52.49;100541.78;5052117;28;20033;-37
2021/10/02 04:25:58;;;;;;;13.55;6.47;;;;;;;13.13;52.11;100547.47;5052215;28;20037;-37
2021/10/02 04:28:24;;;;;;;9.15;6.38;;;;;;;13.09;52.49;100546.22;5052249;28;20342;-37
2021/10/02 04:30:50;;;;;;;11.07;6.00;;;;;;;13.10;52.18;100545.22;5052336;28;20029;-36
2021/10/02 04:33:16;;;;;;;12.95;6.80;;;;;;;13.07;53.12;100541.06;5052104;28;20410;-37
2021/10/02 04:35:41;;;;;;;13.55;6.90;;;;;;;13.17;51.94;100548.72;5051982;28;20062;-36
2021/10/02 04:38:07;;;;;;;17.85;7.28;;;;;;;12.96;53.44;100548.84;5051192;28;20083;-48
2021/10/02 04:40:32;;;;;;;12.55;7.00;;;;;;;13.21;52.58;100552.66;5050973;28;20029;-50
2021/10/02 04:42:58;;;;;;;11.75;6.82;;;;;;;13.22;52.81;100548.13;5050925;28;20543;-50
2021/10/02 04:45:23;;;;;;;11.88;6.53;;;;;;;13.24;52.65;100551.41;5051094;28;20508;-48
2021/10/02 04:47:50;;;;;;;14.13;7.63;;;;;;;13.60;52.04;100548.44;5050519;28;20029;-50
2021/10/02 04:50:15;;;;;;;29.65;15.95;;;;;;;13.60;51.65;100553.78;5050329;28;20044;-48
2021/10/02 04:52:41;;;;;;;29.45;17.20;;;;;;;13.57;52.75;100550.69;5050325;28;20025;-49
2021/10/02 04:55:07;;;;;;;38.30;21.52;;;;;;;13.77;52.81;100556.91;5050153;28;20087;-48
2021/10/02 04:57:32;;;;;;;16.85;7.75;;;;;;;14.20;50.37;100561.00;5050518;28;20033;-48
2021/10/02 04:59:58;;;;;;;14.05;7.57;;;;;;;14.22;50.84;100558.94;5050579;28;20644;-48
2021/10/02 05:02:23;;;;;;;14.93;7.82;;;;;;;14.31;51.58;100560.38;5050626;28;20620;-49
2021/10/02 05:04:49;;;;;;;10.77;6.40;;;;;;;14.27;50.29;100549.25;5050113;28;20390;-49
2021/10/02 05:07:14;;;;;;;12.75;7.40;;;;;;;14.47;50.28;100561.81;5050167;28;20033;-49
2021/10/02 05:09:43;;;;;;;15.95;7.07;;;;;;;14.75;50.09;100564.22;5050446;28;20029;-48
2021/10/02 05:12:09;;;;;;;9.13;7.05;;;;;;;14.95;50.53;100568.72;5050380;28;20032;-48
2021/10/02 05:14:35;;;;;;;18.02;7.72;;;;;;;15.11;48.64;100564.72;5050060;28;20059;-48
2021/10/02 05:17:00;;;;;;;18.23;9.38;;;;;;;14.89;49.00;100570.38;5050141;28;20029;-48
2021/10/02 05:19:26;;;;;;;13.55;7.45;;;;;;;15.13;48.25;100568.00;5050204;28;20028;-49
2021/10/02 05:21:51;;;;;;;12.20;7.03;;;;;;;15.67;47.37;100574.72;5050110;28;20441;-50
2021/10/02 05:24:17;;;;;;;18.63;7.45;;;;;;;16.15;46.40;100579.53;5049900;28;20384;-50
2021/10/02 05:26:43;;;;;;;14.73;7.45;;;;;;;16.67;44.90;100578.41;5049754;28;20036;-48
2021/10/02 05:29:08;;;;;;;16.02;7.55;;;;;;;16.80;43.94;100578.28;5050249;28;20025;-37
2021/10/02 05:31:34;;;;;;;16.40;7.20;;;;;;;17.10;44.14;100578.38;5050685;28;20036;-37
2021/10/02 05:33:59;;;;;;;12.73;7.00;;;;;;;17.58;43.49;100588.25;5042609;28;20029;-37
2021/10/02 05:36:25;;;;;;;11.52;7.40;;;;;;;17.63;42.79;100576.81;5049951;28;20032;-37
2021/10/02 05:38:50;;;;;;;13.50;6.40;;;;;;;17.71;43.28;100575.66;5050289;28;20102;-37
2021/10/02 05:41:16;;;;;;;11.82;6.40;;;;;;;18.02;42.65;100573.75;5041850;28;20040;-37
2021/10/02 05:43:41;;;;;;;11.27;5.03;;;;;;;18.47;41.29;100587.47;5030289;28;20037;-38
2021/10/02 05:46:06;;;;;;;9.38;4.90;;;;;;;19.04;39.68;100581.44;5041793;28;20039;-37
2021/10/02 05:48:32;;;;;;;12.85;6.07;;;;;;;19.34;37.46;100585.78;5049742;28;20380;-37
2021/10/02 05:50:57;;;;;;;13.20;7.80;;;;;;;19.37;44.52;100584.50;5050164;28;20040;-37
2021/10/02 05:53:23;;;;;;;24.70;15.43;;;;;;;19.92;36.70;100587.38;5048674;28;20029;-38
2021/10/02 05:55:48;;;;;;;11.27;6.28;;;;;;;20.19;36.69;100575.91;5047600;28;20029;-38
2021/10/02 05:58:14;;;;;;;17.35;8.07;;;;;;;19.81;36.29;100584.75;5049606;28;20036;-38
2021/10/02 06:00:39;;;;;;;10.48;6.57;;;;;;;20.53;35.88;100585.88;5048809;28;20110;-38
2021/10/02 06:03:05;;;;;;;13.43;8.98;;;;;;;20.85;38.47;100577.94;5048689;28;20115;-38
2021/10/02 06:05:30;;;;;;;12.73;8.55;;;;;;;21.07;34.83;100592.25;5048934;28;20078;-38
2021/10/02 06:07:56;;;;;;;13.30;7.90;;;;;;;20.82;34.05;100583.84;5048722;28;20033;-37
2021/10/02 06:10:22;;;;;;;13.32;8.18;;;;;;;21.29;33.61;100586.84;5048673;28;20104;-38
2021/10/02 06:12:47;;;;;;;13.38;9.73;;;;;;;21.65;33.09;100583.72;5048485;28;20029;-36
2021/10/02 06:15:13;;;;;;;12.40;8.95;;;;;;;22.15;32.42;100587.91;5048500;28;20049;-36
2021/10/02 06:17:38;;;;;;;10.52;6.72;;;;;;;22.31;31.17;100585.34;5048833;28;20394;-36
2021/10/02 06:20:04;;;;;;;8.88;4.68;;;;;;;22.54;30.49;100581.41;5052106;28;20499;-36
2021/10/02 06:22:30;;;;;;;8.05;5.07;;;;;;;22.56;30.37;100576.53;5052687;28;20476;-37
2021/10/02 06:24:55;;;;;;;8.98;4.20;;;;;;;22.63;30.73;100577.94;5053070;28;20078;-37
2021/10/02 06:27:20;;;;;;;4.55;3.58;;;;;;;23.13;29.86;100580.34;5051611;28;20027;-37
2021/10/02 06:29:46;;;;;;;6.05;4.03;;;;;;;23.29;29.09;100581.22;5053484;28;20027;-37
2021/10/02 06:32:11;;;;;;;8.32;3.85;;;;;;;23.59;28.93;100586.69;5053878;28;20094;-38
2021/10/02 06:34:37;;;;;;;6.22;3.55;;;;;;;23.80;28.90;100587.56;5053406;28;20025;-37
2021/10/02 06:37:02;;;;;;;7.60;3.90;;;;;;;23.78;28.37;100589.72;5053582;28;20082;-37
2021/10/02 06:39:28;;;;;;;9.30;4.35;;;;;;;23.58;28.30;100595.91;5053502;28;20021;-38
2021/10/02 06:41:53;;;;;;;7.18;3.70;;;;;;;23.28;28.11;100585.81;5053101;28;20021;-38
2021/10/02 06:44:19;;;;;;;8.32;3.88;;;;;;;23.86;28.01;100587.56;5053224;28;20029;-37
2021/10/02 06:46:44;;;;;;;7.38;4.00;;;;;;;23.43;27.90;100588.56;5053048;28;20025;-36
2021/10/02 06:49:10;;;;;;;10.93;4.10;;;;;;;23.60;28.87;100585.59;5053145;28;20025;-37
2021/10/02 06:51:35;;;;;;;6.53;4.75;;;;;;;24.32;27.94;100584.81;5053220;28;20500;-38
2021/10/02 06:54:01;;;;;;;5.93;4.32;;;;;;;24.63;27.59;100585.56;5053179;28;20036;-37
2021/10/02 06:56:26;;;;;;;6.72;3.90;;;;;;;24.75;28.07;100588.81;5053067;28;20106;-36
2021/10/02 06:58:52;;;;;;;5.30;4.20;;;;;;;25.17;27.36;100589.44;5052787;28;20025;-37
2021/10/02 07:01:17;;;;;;;8.57;4.05;;;;;;;25.41;26.34;100586.06;5052697;28;20032;-37
2021/10/02 07:03:43;;;;;;;10.95;4.22;;;;;;;25.51;26.77;100581.38;5052120;28;20048;-38
2021/10/02 07:06:08;;;;;;;7.57;4.13;;;;;;;25.71;26.22;100591.28;5052420;28;20048;-38
2021/10/02 07:08:33;;;;;;;8.52;4.40;;;;;;;26.31;25.58;100584.78;5050889;28;20024;-37
2021/10/02 07:10:59;;;;;;;9.43;4.88;;;;;;;26.33;25.37;100574.41;5052421;28;20020;-40
2021/10/02 07:13:24;;;;;;;15.25;8.85;;;;;;;25.65;25.76;100581.53;5051579;28;20029;-37
2021/10/02 07:15:50;;;;;;;6.15;4.45;;;;;;;26.30;25.70;100580.44;5052476;28;20049;-37
2021/10/02 07:18:17;;;;;;;7.78;3.80;;;;;;;26.63;25.12;100581.47;5052951;28;20029;-36
2021/10/02 07:20:43;;;;;;;9.07;6.13;;;;;;;25.75;25.51;100580.63;5052328;28;20214;-36
2021/10/02 07:23:08;;;;;;;6.38;4.82;;;;;;;26.07;25.70;100576.59;5051921;28;20404;-37
2021/10/02 07:25:34;;;;;;;6.60;3.78;;;;;;;26.13;25.50;100573.50;5051554;28;20032;-37
2021/10/02 07:28:00;;;;;;;6.97;3.67;;;;;;;26.78;24.99;100571.47;5050633;28;20013;-37
2021/10/02 07:30:25;;;;;;;7.13;3.60;;;;;;;26.89;24.42;100568.31;5049996;28;20013;-37
2021/10/02 07:32:51;;;;;;;5.28;3.35;;;;;;;26.20;25.41;100578.63;5051883;28;20505;-37
2021/10/02 07:35:16;;;;;;;9.45;3.63;;;;;;;26.70;24.75;100586.59;5051988;28;20377;-37
2021/10/02 07:37:42;;;;;;;7.63;3.90;;;;;;;26.78;25.25;100571.47;5052112;28;20028;-37
2021/10/02 07:40:09;;;;;;;8.65;3.83;;;;;;;27.16;25.58;100586.00;5051886;28;20379;-37
2021/10/02 07:42:35;;;;;;;6.90;3.92;;;;;;;27.80;23.96;100574.69;5051989;28;20024;-37
2021/10/02 07:45:08;;;;;;;9.93;4.05;;;;;;;27.88;23.21;100576.75;5051092;28;20044;-37
2021/10/02 07:47:39;;;;;;;8.43;3.75;;;;;;;27.35;23.53;100574.31;5051963;28;20025;-38
2021/10/02 07:50:07;;;;;;;8.95;3.95;;;;;;;27.59;25.05;100572.28;5052225;28;20027;-37
2021/10/02 07:52:32;;;;;;;7.80;4.40;;;;;;;28.06;23.56;100575.06;5050802;28;20450;-36
2021/10/02 07:54:58;;;;;;;6.93;3.78;;;;;;;27.88;23.40;100574.00;5050811;28;20025;-37
2021/10/02 07:57:24;;;;;;;11.18;4.30;;;;;;;28.12;23.03;100568.44;5052199;28;20052;-37
2021/10/02 07:59:49;;;;;;;5.78;3.88;;;;;;;26.76;23.99;100569.03;5034168;28;20477;-36
2021/10/02 08:02:18;;;;;;;8.15;3.60;;;;;;;27.50;23.53;100563.13;5050388;28;20017;-37
2021/10/02 08:04:43;;;;;;;11.50;8.50;;;;;;;27.87;22.92;100564.16;5051830;28;20538;-37
2021/10/02 08:07:09;;;;;;;8.75;4.57;;;;;;;27.92;22.91;100558.66;5050218;28;20060;-36
2021/10/02 08:09:35;;;;;;;5.80;3.60;;;;;;;28.05;22.43;100560.59;5051672;28;20029;-36
2021/10/02 08:12:00;;;;;;;6.47;3.50;;;;;;;26.71;23.54;100555.44;5051611;28;20025;-36
2021/10/02 08:14:26;;;;;;;6.82;3.63;;;;;;;26.68;24.00;100558.78;5051747;28;20070;-38
2021/10/02 08:16:51;;;;;;;8.18;3.75;;;;;;;27.14;23.85;100554.63;5051185;28;20043;-36
2021/10/02 08:19:17;;;;;;;9.15;3.70;;;;;;;27.07;23.31;100552.25;5032948;28;21105;-36
2021/10/02 08:21:42;;;;;;;19.05;7.82;;;;;;;26.56;23.76;100545.50;5030536;28;20385;-37
2021/10/02 08:24:09;;;;;;;10.13;4.00;;;;;;;27.00;22.81;100544.44;5033250;28;20082;-37
2021/10/02 08:26:34;;;;;;;5.43;3.38;;;;;;;25.26;24.08;100555.06;5050248;28;20040;-36
2021/10/02 08:29:02;;;;;;;5.38;3.10;;;;;;;24.85;24.92;100549.84;5049015;28;20016;-37
2021/10/02 08:31:28;;;;;;;10.18;4.97;;;;;;;24.30;25.65;100551.63;5049977;28;20104;-37
2021/10/02 08:33:53;;;;;;;4.88;3.05;;;;;;;23.09;26.66;100547.47;5050117;28;20043;-36
2021/10/02 08:36:19;;;;;;;5.60;3.55;;;;;;;23.07;26.93;100546.13;5050030;28;20424;-37
2021/10/02 08:38:44;;;;;;;4.82;2.97;;;;;;;23.40;26.78;100553.81;5050178;28;20025;-37
2021/10/02 08:41:10;;;;;;;6.60;3.40;;;;;;;23.90;24.85;100545.97;5050142;28;20107;-37
2021/10/02 08:43:36;;;;;;;6.18;3.20;;;;;;;24.13;25.32;100543.78;5050850;28;20021;-37
2021/10/02 08:46:03;;;;;;;9.73;4.18;;;;;;;24.30;25.66;100536.13;5050755;28;20112;-37
2021/10/02 08:48:28;;;;;;;18.58;8.38;;;;;;;25.09;25.06;100538.28;5050620;28;20104;-37
2021/10/02 08:50:54;;;;;;;10.88;4.75;;;;;;;25.73;24.15;100525.59;5050806;28;20492;-37
2021/10/02 08:53:19;;;;;;;11.80;4.78;;;;;;;25.88;23.76;100535.56;5049737;28;20021;-37
2021/10/02 08:55:45;;;;;;;6.15;2.95;;;;;;;25.70;23.17;100529.72;5050957;28;20480;-37
2021/10/02 08:58:10;;;;;;;6.00;2.97;;;;;;;25.90;23.08;100528.69;5051213;28;20036;-37
2021/10/02 09:00:36;;;;;;;5.25;3.30;;;;;;;25.43;24.07;100529.38;5050172;28;20036;-37
2021/10/02 09:03:02;;;;;;;6.65;2.90;;;;;;;25.01;24.09;100525.25;5050592;28;20033;-37
2021/10/02 09:05:27;;;;;;;6.53;3.60;;;;;;;25.13;24.01;100531.16;5048777;28;20083;-37
2021/10/02 09:07:58;;;;;;;25.92;12.10;;;;;;;24.94;24.64;100526.38;5048973;28;20024;-37
2021/10/02 09:10:24;;;;;;;11.73;5.15;;;;;;;25.26;23.96;100525.13;5050113;28;20020;-37
2021/10/02 09:12:49;;;;;;;5.97;3.63;;;;;;;25.16;23.53;100523.25;5049915;28;20104;-37
2021/10/02 09:15:15;;;;;;;10.40;4.53;;;;;;;25.58;23.41;100512.91;5050084;28;20044;-38
2021/10/02 09:17:41;;;;;;;5.28;2.83;;;;;;;24.62;24.27;100520.53;5050025;28;20506;-38
2021/10/02 09:20:07;;;;;;;4.38;2.78;;;;;;;24.57;24.25;100505.88;5050084;28;20045;-36
2021/10/02 09:22:34;;;;;;;11.60;7.25;;;;;;;24.10;25.28;100514.41;5048237;28;20052;-36
2021/10/02 09:25:01;;;;;;;7.70;4.05;;;;;;;23.64;25.56;100500.84;5049935;28;20050;-38
2021/10/02 09:27:29;;;;;;;6.43;2.63;;;;;;;23.11;26.38;100504.59;5048854;28;20025;-36
2021/10/02 09:30:01;;;;;;;6.60;3.30;;;;;;;23.72;25.33;100503.84;5049698;28;20017;-39
2021/10/02 09:32:38;;;;;;;7.93;2.90;;;;;;;24.02;24.59;100504.91;5049786;28;20490;-36
2021/10/02 09:35:09;;;;;;;5.13;2.75;;;;;;;24.27;25.04;100497.78;5048293;28;20377;-38
2021/10/02 09:37:36;;;;;;;5.13;2.78;;;;;;;24.51;24.19;100490.66;5049636;28;20111;-37
2021/10/02 09:40:17;;;;;;;6.10;2.70;;;;;;;24.00;24.61;100490.78;5049067;28;20036;-35
2021/10/02 09:43:03;;;;;;;3.58;2.53;;;;;;;23.16;25.68;100498.38;5047997;28;20048;-37
2021/10/02 09:45:30;;;;;;;7.65;2.30;;;;;;;23.20;26.30;100494.84;5047739;28;20438;-38
2021/10/02 09:48:00;;;;;;;4.05;2.50;;;;;;;23.43;25.93;100485.34;5048505;28;20103;-37
2021/10/02 09:50:28;;;;;;;5.43;2.42;;;;;;;23.81;25.02;100479.66;5050085;28;20013;-37
2021/10/02 09:53:01;;;;;;;3.92;2.45;;;;;;;23.62;24.93;100479.38;5049114;28;20426;-37
2021/10/02 09:55:28;;;;;;;4.65;2.50;;;;;;;24.32;23.79;100476.84;5049646;28;20516;-37
2021/10/02 09:57:56;;;;;;;5.65;2.50;;;;;;;24.56;23.08;100474.31;5049969;28;20029;-37
2021/10/02 10:00:24;;;;;;;5.15;2.60;;;;;;;24.76;23.33;100478.03;5050276;28;20056;-37
2021/10/02 10:02:50;;;;;;;4.45;2.70;;;;;;;24.29;23.74;100474.66;5049961;28;20029;-37
2021/10/02 10:05:15;;;;;;;4.88;2.55;;;;;;;23.30;25.22;100475.03;5050267;28;20025;-37
2021/10/02 10:07:50;;;;;;;4.72;2.55;;;;;;;23.33;24.79;100462.81;5050438;28;20029;-37
2021/10/02 10:10:16;;;;;;;4.57;3.00;;;;;;;24.12;30.47;100468.72;5049683;28;20013;-37
2021/10/02 10:12:42;;;;;;;4.65;2.90;;;;;;;24.37;24.60;100462.41;5049801;28;20025;-37
2021/10/02 10:15:42;;;;;;;4.05;2.75;;;;;;;24.60;23.79;100474.59;5049601;28;20057;-37
2021/10/02 10:18:12;;;;;;;4.28;2.65;;;;;;;25.33;23.69;100457.53;5026675;28;20045;-37
2021/10/02 10:20:39;;;;;;;6.63;2.72;;;;;;;25.40;23.09;100456.38;5049868;28;20102;-37
2021/10/02 10:23:05;;;;;;;6.18;2.70;;;;;;;25.04;23.06;100464.81;5050268;28;20021;-37
2021/10/02 10:25:31;;;;;;;3.80;2.75;;;;;;;23.84;23.98;100457.41;5049947;28;20514;-37
2021/10/02 10:28:01;;;;;;;3.95;2.40;;;;;;;24.54;23.96;100459.34;5059525;28;20028;-37
2021/10/02 10:30:27;;;;;;;3.83;2.50;;;;;;;25.42;24.86;100451.47;5056365;28;20017;-36
2021/10/02 10:32:55;;;;;;;4.68;2.63;;;;;;;25.60;23.05;100448.03;5066050;28;20020;-36
2021/10/02 10:35:21;;;;;;;4.95;2.33;;;;;;;25.58;23.01;100439.34;5065195;28;20025;-36
2021/10/02 10:37:47;;;;;;;6.18;2.65;;;;;;;25.35;23.68;100427.28;5056719;28;20031;-38
2021/10/02 10:40:12;;;;;;;5.10;2.70;;;;;;;26.17;23.13;100434.66;5058038;28;20025;-36
2021/10/02 10:42:38;;;;;;;4.38;2.80;;;;;;;26.59;21.44;100430.31;5063136;28;20021;-37
2021/10/02 10:45:04;;;;;;;6.78;3.10;;;;;;;26.38;23.59;100427.03;5052713;28;20021;-37
2021/10/02 10:47:29;;;;;;;5.45;2.50;;;;;;;26.71;21.74;100422.53;5069256;28;20027;-37
2021/10/02 10:49:55;;;;;;;4.63;3.05;;;;;;;26.83;22.70;100421.28;5038794;28;20029;-37
2021/10/02 10:52:20;;;;;;;4.50;2.90;;;;;;;26.46;22.34;100426.38;5045604;28;20028;-37
2021/10/02 10:54:50;;;;;;;6.18;2.75;;;;;;;26.91;21.68;100420.59;5047156;28;20039;-37
2021/10/02 10:57:35;;;;;;;2.67;2.33;;;;;;;27.06;20.65;100431.28;5034824;28;20020;-37
2021/10/02 11:00:08;;;;;;;3.65;2.53;;;;;;;26.38;21.01;100418.03;5059048;28;20068;-37
2021/10/02 11:02:45;;;;;;;4.95;2.42;;;;;;;26.30;21.55;100417.56;5063396;28;20027;-38
2021/10/02 11:05:35;;;;;;;3.08;2.30;;;;;;;26.43;21.51;100421.50;5054283;28;20029;-36
2021/10/02 11:08:08;;;;;;;6.45;2.30;;;;;;;27.11;21.51;100414.81;5063203;28;20025;-37
2021/10/02 11:10:48;;;;;;;3.25;2.28;;;;;;;26.11;21.97;100408.56;5066929;28;20028;-38
2021/10/02 11:13:29;;;;;;;4.05;2.38;;;;;;;25.45;23.07;100399.13;5052664;28;20119;-37
2021/10/02 11:15:56;;;;;;;3.90;2.42;;;;;;;23.53;25.16;100421.25;5061196;28;20488;-37
2021/10/02 11:18:43;;;;;;;5.28;2.50;;;;;;;22.84;26.31;100397.06;5072461;28;20035;-37
2021/10/02 11:21:10;;;;;;;5.78;2.30;;;;;;;22.09;27.07;100410.09;5069792;28;20024;-37
2021/10/02 11:23:41;;;;;;;3.92;2.30;;;;;;;23.11;27.41;100401.44;5059123;28;20025;-37
2021/10/02 11:26:22;;;;;;;4.85;2.60;;;;;;;22.91;26.02;100398.72;5060610;28;20032;-37
2021/10/02 11:28:51;;;;;;;2.42;2.17;;;;;;;22.68;26.14;100390.00;5052528;28;20021;-38
2021/10/02 11:31:19;;;;;;;4.05;2.22;;;;;;;24.03;25.86;100388.84;5032240;28;20023;-37
2021/10/02 11:33:46;;;;;;;4.78;2.30;;;;;;;24.65;23.19;100387.47;5047612;28;20081;-37
2021/10/02 11:36:39;;;;;;;3.60;2.25;;;;;;;24.30;24.38;100385.75;5061064;28;20504;-37
2021/10/02 11:39:16;;;;;;;3.60;2.35;;;;;;;24.14;24.10;100382.25;5066804;28;20041;-38
2021/10/02 11:41:50;;;;;;;4.18;2.03;;;;;;;23.70;24.36;100372.88;5058810;28;20448;-36
2021/10/02 11:44:32;;;;;;;3.47;2.35;;;;;;;24.63;24.68;100380.69;5060271;28;20757;-38
2021/10/02 11:47:27;;;;;;;4.32;2.00;;;;;;;23.13;25.25;100376.75;5067402;28;20032;-38
2021/10/02 11:50:12;;;;;;;4.03;2.00;;;;;;;22.61;26.72;100365.81;5060826;28;20033;-38
2021/10/02 11:52:43;;;;;;;4.07;2.40;;;;;;;23.09;25.68;100367.53;5056837;28;20468;-38
2021/10/02 11:55:34;;;;;;;6.82;2.40;;;;;;;23.05;26.00;100369.16;5068678;28;20051;-36
2021/10/02 12:00:39;;;;;;;4.85;2.50;;;;;;;23.10;26.89;100364.53;5057334;28;20060;-38
2021/10/02 12:03:05;;;;;;;3.20;2.22;;;;;;;23.71;25.33;100366.34;5068238;28;20108;-37
2021/10/02 12:05:31;;;;;;;3.92;2.35;;;;;;;23.88;24.90;100370.69;5057516;28;20067;-37
2021/10/02 12:07:57;;;;;;;4.22;2.30;;;;;;;23.25;25.51;100366.44;5062807;28;20021;-37
2021/10/02 12:10:22;;;;;;;4.10;2.10;;;;;;;23.76;24.90;100362.81;5064216;28;20027;-37
2021/10/02 12:12:48;;;;;;;3.90;2.30;;;;;;;23.72;24.99;100359.84;5055323;28;20033;-37
2021/10/02 12:15:32;;;;;;;5.10;2.47;;;;;;;24.53;24.37;100371.50;5054813;28;20041;-37
2021/10/02 12:17:58;;;;;;;3.80;2.30;;;;;;;24.57;24.45;100378.00;5061561;28;20028;-37
2021/10/02 12:20:40;;;;;;;3.50;2.08;;;;;;;23.72;24.68;100373.44;5064289;28;20427;-37
2021/10/02 12:23:06;;;;;;;3.95;2.30;;;;;;;23.66;24.50;100362.84;5054518;28;20029;-37
2021/10/02 12:25:32;;;;;;;4.70;2.03;;;;;;;23.51;24.87;100366.41;5065353;28;20028;-37